Time;durP1;ratioP1;P1;durP2;ratioP2;P2;SDS_P1;SDS_P2;PMS_P1;PMS_P2;Temp;Humidity;BMP_temperature;BMP_pressure;BME280_temperature;BME280_humidity;BME280_pressure;Samples;Min_cycle;Max_cycle;Signal;HPM_P1;HPM_P2
2024/01/16 00:00:25;;;;;;;0.30;0.30;;;;;;;;;;5021842;28;20719;-75
2024/01/16 00:02:52;;;;;;;0.40;0.40;;;;;;;;;;5029130;28;20736;-75
2024/01/16 00:05:18;;;;;;;0.30;0.30;;;;;;;;;;5024188;28;20314;-75
2024/01/16 00:07:45;;;;;;;0.30;0.30;;;;;;;;;;5022640;28;20617;-75
2024/01/16 00:10:11;;;;;;;3.20;2.33;;;;;;;;;;5043500;28;20726;-74
2024/01/16 00:12:40;;;;;;;0.57;0.57;;;;;;;;;;5053018;28;20232;-74
2024/01/16 00:15:06;;;;;;;0.30;0.30;;;;;;;;;;5036920;28;20727;-74
2024/01/16 00:17:33;;;;;;;1.20;1.13;;;;;;;;;;5037143;28;20704;-74
2024/01/16 00:20:00;;;;;;;0.30;0.30;;;;;;;;;;5021578;28;20294;-74
2024/01/16 00:22:27;;;;;;;0.40;0.40;;;;;;;;;;5028634;28;20225;-74
2024/01/16 00:24:54;;;;;;;0.33;0.33;;;;;;;;;;5017355;28;20232;-76
2024/01/16 00:27:21;;;;;;;0.40;0.40;;;;;;;;;;5021447;28;20229;-74
2024/01/16 00:29:47;;;;;;;0.43;0.43;;;;;;;;;;5026744;28;20234;-75
2024/01/16 00:32:17;;;;;;;0.20;0.20;;;;;;;;;;5030342;28;20228;-75
2024/01/16 00:34:44;;;;;;;1.90;1.47;;;;;;;;;;5018289;28;20278;-75
2024/01/16 00:37:10;;;;;;;0.43;0.43;;;;;;;;;;5030114;28;20239;-75
2024/01/16 00:39:36;;;;;;;1.37;1.37;;;;;;;;;;5027273;28;20708;-75
2024/01/16 00:42:03;;;;;;;0.33;0.33;;;;;;;;;;5032893;28;20232;-75
2024/01/16 00:44:29;;;;;;;0.97;0.73;;;;;;;;;;5027015;28;20234;-75
2024/01/16 00:46:56;;;;;;;0.67;0.67;;;;;;;;;;5027060;28;20239;-75
2024/01/16 00:49:23;;;;;;;0.40;0.40;;;;;;;;;;5042381;28;20311;-75
2024/01/16 00:51:49;;;;;;;0.50;0.50;;;;;;;;;;5025779;28;20228;-74
2024/01/16 00:54:16;;;;;;;0.40;0.40;;;;;;;;;;5029524;28;20742;-75
2024/01/16 00:56:42;;;;;;;0.20;0.20;;;;;;;;;;5030356;28;20228;-74
2024/01/16 00:59:09;;;;;;;0.30;0.30;;;;;;;;;;5024275;28;20231;-74
2024/01/16 01:01:37;;;;;;;0.60;0.60;;;;;;;;;;5030500;28;20230;-74
2024/01/16 01:04:04;;;;;;;0.30;0.30;;;;;;;;;;5030481;28;20298;-74
2024/01/16 01:06:30;;;;;;;0.40;0.40;;;;;;;;;;5029385;28;20260;-74
2024/01/16 01:08:57;;;;;;;0.30;0.30;;;;;;;;;;5044467;28;20224;-75
2024/01/16 01:11:23;;;;;;;0.30;0.30;;;;;;;;;;5025096;28;20251;-75
2024/01/16 01:13:50;;;;;;;0.33;0.33;;;;;;;;;;5058723;28;20216;-75
2024/01/16 01:16:16;;;;;;;0.30;0.30;;;;;;;;;;5029243;28;20298;-75
2024/01/16 01:18:43;;;;;;;0.60;0.60;;;;;;;;;;5029782;28;20247;-75
2024/01/16 01:21:10;;;;;;;0.20;0.20;;;;;;;;;;5025065;28;20224;-75
2024/01/16 01:23:36;;;;;;;1.43;0.97;;;;;;;;;;5029583;28;20225;-75
2024/01/16 01:26:04;;;;;;;0.77;0.77;;;;;;;;;;5024327;28;20238;-75
2024/01/16 01:28:31;;;;;;;0.30;0.30;;;;;;;;;;5021296;28;20231;-75
2024/01/16 01:30:57;;;;;;;0.30;0.30;;;;;;;;;;5015818;28;20731;-75
2024/01/16 01:33:24;;;;;;;0.30;0.30;;;;;;;;;;5030440;28;20277;-75
2024/01/16 01:35:51;;;;;;;5.10;1.40;;;;;;;;;;5020690;28;20216;-75
2024/01/16 01:38:19;;;;;;;0.33;0.33;;;;;;;;;;5019331;28;20890;-75
2024/01/16 01:40:45;;;;;;;0.30;0.30;;;;;;;;;;5018633;28;20237;-75
2024/01/16 01:43:20;;;;;;;0.90;0.90;;;;;;;;;;5021862;28;20255;-75
2024/01/16 01:46:03;;;;;;;2.53;1.33;;;;;;;;;;5018488;28;20232;-75
2024/01/16 01:48:31;;;;;;;0.63;0.63;;;;;;;;;;5025647;28;20231;-75
2024/01/16 01:51:00;;;;;;;0.50;0.50;;;;;;;;;;5029838;28;20232;-75
2024/01/16 01:53:28;;;;;;;0.30;0.30;;;;;;;;;;5021567;28;20756;-76
2024/01/16 01:55:55;;;;;;;0.57;0.57;;;;;;;;;;5022247;28;20236;-75
2024/01/16 01:58:22;;;;;;;0.30;0.30;;;;;;;;;;5037428;28;20614;-75
2024/01/16 02:00:50;;;;;;;0.30;0.30;;;;;;;;;;5024652;28;20751;-75
2024/01/16 02:03:17;;;;;;;4.03;0.73;;;;;;;;;;5023880;28;20227;-75
2024/01/16 02:05:45;;;;;;;0.30;0.30;;;;;;;;;;5026548;28;20278;-75
2024/01/16 02:08:12;;;;;;;0.20;0.20;;;;;;;;;;5024583;28;20581;-75
2024/01/16 02:10:42;;;;;;;1.40;0.93;;;;;;;;;;5020701;28;20223;-75
2024/01/16 02:13:10;;;;;;;0.77;0.77;;;;;;;;;;5027959;28;20598;-75
2024/01/16 02:15:39;;;;;;;0.30;0.30;;;;;;;;;;5026226;28;20224;-75
2024/01/16 02:18:06;;;;;;;1.43;1.37;;;;;;;;;;5024711;28;20613;-75
2024/01/16 02:20:33;;;;;;;0.27;0.27;;;;;;;;;;5022205;28;20228;-75
2024/01/16 02:23:03;;;;;;;0.30;0.30;;;;;;;;;;5015653;28;20340;-75
2024/01/16 02:25:30;;;;;;;0.30;0.30;;;;;;;;;;5016615;28;20314;-74
2024/01/16 02:27:57;;;;;;;0.30;0.30;;;;;;;;;;5018892;28;20240;-75
2024/01/16 02:30:23;;;;;;;0.30;0.30;;;;;;;;;;5013232;28;20588;-75
2024/01/16 02:32:50;;;;;;;0.20;0.20;;;;;;;;;;5017526;28;20233;-75
2024/01/16 02:35:18;;;;;;;0.27;0.27;;;;;;;;;;5018757;28;20328;-75
2024/01/16 02:37:44;;;;;;;0.60;0.60;;;;;;;;;;5016735;28;20725;-74
2024/01/16 02:40:13;;;;;;;0.30;0.30;;;;;;;;;;5013623;28;20235;-75
2024/01/16 02:42:40;;;;;;;4.80;1.13;;;;;;;;;;5020026;28;20766;-75
2024/01/16 02:45:08;;;;;;;0.30;0.30;;;;;;;;;;5019266;28;20619;-75
2024/01/16 02:47:35;;;;;;;1.07;1.07;;;;;;;;;;5030492;28;20232;-74
2024/01/16 02:50:02;;;;;;;0.30;0.30;;;;;;;;;;5044856;28;20280;-75
2024/01/16 02:52:28;;;;;;;0.63;0.63;;;;;;;;;;5033240;28;20224;-74
2024/01/16 02:54:55;;;;;;;1.33;0.93;;;;;;;;;;5027503;28;20224;-74
2024/01/16 02:57:21;;;;;;;0.30;0.30;;;;;;;;;;5034805;28;20235;-75
2024/01/16 02:59:48;;;;;;;0.27;0.27;;;;;;;;;;5035949;28;20230;-75
2024/01/16 03:02:14;;;;;;;1.37;1.27;;;;;;;;;;5028984;28;20252;-75
2024/01/16 03:04:41;;;;;;;0.20;0.20;;;;;;;;;;5024515;28;20259;-75
2024/01/16 03:07:08;;;;;;;0.30;0.30;;;;;;;;;;5025871;28;20259;-74
2024/01/16 03:09:34;;;;;;;0.60;0.60;;;;;;;;;;5020556;28;20588;-75
2024/01/16 03:12:02;;;;;;;0.20;0.20;;;;;;;;;;5029101;28;20884;-75
2024/01/16 03:14:33;;;;;;;0.50;0.50;;;;;;;;;;5024126;28;21966;-75
2024/01/16 03:17:01;;;;;;;0.70;0.70;;;;;;;;;;5022969;28;20584;-75
2024/01/16 03:19:28;;;;;;;0.30;0.30;;;;;;;;;;5028653;28;21551;-75
2024/01/16 03:21:55;;;;;;;0.33;0.33;;;;;;;;;;5020230;28;20227;-75
2024/01/16 03:24:21;;;;;;;2.83;0.90;;;;;;;;;;5030929;28;20807;-75
2024/01/16 03:26:48;;;;;;;0.30;0.30;;;;;;;;;;5038697;28;20787;-75
2024/01/16 03:29:15;;;;;;;0.30;0.30;;;;;;;;;;5023286;28;20282;-75
2024/01/16 03:31:42;;;;;;;0.30;0.30;;;;;;;;;;5030367;28;20692;-75
2024/01/16 03:34:10;;;;;;;0.30;0.30;;;;;;;;;;5028103;28;20652;-75
2024/01/16 03:36:37;;;;;;;2.23;0.73;;;;;;;;;;5025418;28;20243;-75
2024/01/16 03:39:04;;;;;;;0.60;0.60;;;;;;;;;;5031060;28;20224;-75
2024/01/16 03:41:30;;;;;;;0.23;0.23;;;;;;;;;;5022244;28;20231;-75
2024/01/16 03:43:57;;;;;;;0.63;0.63;;;;;;;;;;5026153;28;20228;-74
2024/01/16 03:46:23;;;;;;;0.30;0.30;;;;;;;;;;5026094;28;20239;-75
2024/01/16 03:48:49;;;;;;;0.30;0.30;;;;;;;;;;5030243;28;20739;-75
2024/01/16 03:51:17;;;;;;;0.30;0.30;;;;;;;;;;5042347;28;20232;-75
2024/01/16 03:53:44;;;;;;;0.30;0.30;;;;;;;;;;5025538;28;20600;-75
2024/01/16 03:56:10;;;;;;;0.30;0.30;;;;;;;;;;5023575;28;20228;-74
2024/01/16 03:58:39;;;;;;;0.60;0.60;;;;;;;;;;5028130;28;20744;-75
2024/01/16 04:01:06;;;;;;;0.80;0.80;;;;;;;;;;5023725;28;20708;-75
2024/01/16 04:03:34;;;;;;;0.67;0.60;;;;;;;;;;5020721;28;20290;-75
2024/01/16 04:06:01;;;;;;;0.30;0.30;;;;;;;;;;5027075;28;20243;-75
2024/01/16 04:08:28;;;;;;;0.40;0.40;;;;;;;;;;5020780;28;20883;-75
2024/01/16 04:10:54;;;;;;;0.40;0.40;;;;;;;;;;5042920;28;20220;-75
2024/01/16 04:13:22;;;;;;;1.13;1.13;;;;;;;;;;5024866;28;20247;-75
2024/01/16 04:15:48;;;;;;;0.60;0.60;;;;;;;;;;5023206;28;20230;-75
2024/01/16 04:18:14;;;;;;;0.60;0.60;;;;;;;;;;5024733;28;20230;-75
2024/01/16 04:20:43;;;;;;;10.00;0.83;;;;;;;;;;5036130;28;20665;-75
2024/01/16 04:23:11;;;;;;;0.80;0.80;;;;;;;;;;5038123;28;20608;-75
2024/01/16 04:25:39;;;;;;;0.30;0.30;;;;;;;;;;5028063;28;20238;-75
2024/01/16 04:28:05;;;;;;;0.30;0.30;;;;;;;;;;5017939;28;20240;-75
2024/01/16 04:30:32;;;;;;;0.40;0.40;;;;;;;;;;5040401;28;20216;-75
2024/01/16 04:32:58;;;;;;;0.20;0.20;;;;;;;;;;5027496;28;20259;-76
2024/01/16 04:35:25;;;;;;;0.30;0.30;;;;;;;;;;5027747;28;20231;-75
2024/01/16 04:37:52;;;;;;;0.50;0.50;;;;;;;;;;5027743;28;20231;-75
2024/01/16 04:40:18;;;;;;;0.37;0.37;;;;;;;;;;5036525;28;20212;-75
2024/01/16 04:42:44;;;;;;;0.30;0.30;;;;;;;;;;5038800;28;20216;-74
2024/01/16 04:45:12;;;;;;;2.27;0.93;;;;;;;;;;5021831;28;20233;-74
2024/01/16 04:47:38;;;;;;;0.40;0.40;;;;;;;;;;5037623;28;20233;-75
2024/01/16 04:50:05;;;;;;;0.20;0.20;;;;;;;;;;5021898;28;20315;-75
2024/01/16 04:52:31;;;;;;;0.43;0.43;;;;;;;;;;5020861;28;20228;-75
2024/01/16 04:54:58;;;;;;;0.30;0.30;;;;;;;;;;5027712;28;20231;-75
2024/01/16 04:57:24;;;;;;;0.50;0.50;;;;;;;;;;5026691;28;20224;-75
2024/01/16 04:59:51;;;;;;;0.57;0.57;;;;;;;;;;5021515;28;20226;-75
2024/01/16 05:02:18;;;;;;;0.30;0.30;;;;;;;;;;5023739;28;20220;-75
2024/01/16 05:04:45;;;;;;;0.30;0.30;;;;;;;;;;5029799;28;20227;-75
2024/01/16 05:07:12;;;;;;;0.40;0.40;;;;;;;;;;5024679;28;20235;-75
2024/01/16 05:09:38;;;;;;;0.57;0.57;;;;;;;;;;5021845;28;20228;-75
2024/01/16 05:12:05;;;;;;;0.50;0.50;;;;;;;;;;5024198;28;20232;-75
2024/01/16 05:14:32;;;;;;;0.30;0.30;;;;;;;;;;5026690;28;20244;-75
2024/01/16 05:16:58;;;;;;;0.30;0.30;;;;;;;;;;5026257;28;20266;-75
2024/01/16 05:19:25;;;;;;;0.73;0.60;;;;;;;;;;5028979;28;20224;-74
2024/01/16 05:21:52;;;;;;;0.30;0.30;;;;;;;;;;5027998;28;20319;-73
2024/01/16 05:24:19;;;;;;;0.63;0.63;;;;;;;;;;5048087;28;20219;-75
2024/01/16 05:26:45;;;;;;;0.60;0.60;;;;;;;;;;5047494;28;20263;-75
2024/01/16 05:29:12;;;;;;;3.50;1.27;;;;;;;;;;5030397;28;20228;-75
2024/01/16 05:31:42;;;;;;;0.30;0.30;;;;;;;;;;5020983;28;20658;-75
2024/01/16 05:34:09;;;;;;;2.63;1.23;;;;;;;;;;5021085;28;20232;-75
2024/01/16 05:36:35;;;;;;;0.30;0.30;;;;;;;;;;5026860;28;20224;-75
2024/01/16 05:39:02;;;;;;;0.30;0.30;;;;;;;;;;5041421;28;20235;-75
2024/01/16 05:41:33;;;;;;;0.73;0.73;;;;;;;;;;5019235;28;20402;-75
2024/01/16 05:44:01;;;;;;;0.50;0.50;;;;;;;;;;5025804;28;20228;-75
2024/01/16 05:46:31;;;;;;;0.87;0.87;;;;;;;;;;5018641;28;21271;-75
2024/01/16 05:48:57;;;;;;;0.30;0.30;;;;;;;;;;5020272;28;20241;-76
2024/01/16 05:51:27;;;;;;;1.03;1.03;;;;;;;;;;5023594;28;20294;-75
2024/01/16 05:53:54;;;;;;;2.57;0.87;;;;;;;;;;5021013;28;20228;-75
2024/01/16 05:56:20;;;;;;;0.30;0.30;;;;;;;;;;5036163;28;20231;-75
2024/01/16 05:58:47;;;;;;;0.60;0.60;;;;;;;;;;5023493;28;20235;-75
2024/01/16 06:01:13;;;;;;;0.53;0.53;;;;;;;;;;5023430;28;20235;-75
2024/01/16 06:03:46;;;;;;;2.17;1.07;;;;;;;;;;5021529;28;20227;-75
2024/01/16 06:06:13;;;;;;;0.30;0.30;;;;;;;;;;5021717;28;20240;-75
2024/01/16 06:08:39;;;;;;;0.87;0.80;;;;;;;;;;5027062;28;20224;-75
2024/01/16 06:11:05;;;;;;;0.20;0.20;;;;;;;;;;5022680;28;20229;-75
2024/01/16 06:13:32;;;;;;;0.30;0.30;;;;;;;;;;5024398;28;20278;-75
2024/01/16 06:15:59;;;;;;;0.30;0.30;;;;;;;;;;5023748;28;20220;-75
2024/01/16 06:18:26;;;;;;;0.30;0.30;;;;;;;;;;5019479;28;20227;-75
2024/01/16 06:20:53;;;;;;;0.30;0.30;;;;;;;;;;5023748;28;20306;-75
2024/01/16 06:23:19;;;;;;;0.60;0.60;;;;;;;;;;5023114;28;20263;-75
2024/01/16 06:25:46;;;;;;;0.30;0.30;;;;;;;;;;5017969;28;20224;-75
2024/01/16 06:28:12;;;;;;;0.43;0.43;;;;;;;;;;5014485;28;20232;-75
2024/01/16 06:30:39;;;;;;;1.80;1.13;;;;;;;;;;5025967;28;20234;-75
2024/01/16 06:33:05;;;;;;;0.30;0.30;;;;;;;;;;5024009;28;20286;-75
2024/01/16 06:35:32;;;;;;;0.50;0.50;;;;;;;;;;5024110;28;20251;-75
2024/01/16 06:37:59;;;;;;;0.80;0.80;;;;;;;;;;5024459;28;20224;-75
2024/01/16 06:40:26;;;;;;;4.90;0.93;;;;;;;;;;5024433;28;20227;-75
2024/01/16 06:42:52;;;;;;;0.20;0.20;;;;;;;;;;5019694;28;20236;-75
2024/01/16 06:45:19;;;;;;;0.30;0.30;;;;;;;;;;5022520;28;20228;-75
2024/01/16 06:47:45;;;;;;;0.30;0.30;;;;;;;;;;5026107;28;20713;-75
2024/01/16 06:50:15;;;;;;;0.40;0.40;;;;;;;;;;5022609;28;20643;-75
2024/01/16 06:52:42;;;;;;;1.07;1.07;;;;;;;;;;5020801;28;20270;-75
2024/01/16 06:55:09;;;;;;;0.30;0.30;;;;;;;;;;5023630;28;20229;-75
2024/01/16 06:57:35;;;;;;;0.50;0.50;;;;;;;;;;5025062;28;20223;-74
2024/01/16 07:00:02;;;;;;;0.30;0.30;;;;;;;;;;5016347;28;20228;-76
2024/01/16 07:02:29;;;;;;;0.70;0.70;;;;;;;;;;5020514;28;20235;-75
2024/01/16 07:04:56;;;;;;;4.10;1.63;;;;;;;;;;5014833;28;20251;-75
2024/01/16 07:07:26;;;;;;;0.40;0.40;;;;;;;;;;5033962;28;20224;-75
2024/01/16 07:09:52;;;;;;;0.30;0.30;;;;;;;;;;5016656;28;20326;-75
2024/01/16 07:12:18;;;;;;;1.33;0.87;;;;;;;;;;5036298;28;20239;-75
2024/01/16 07:14:45;;;;;;;0.30;0.30;;;;;;;;;;5021234;28;20223;-75
2024/01/16 07:17:12;;;;;;;0.40;0.40;;;;;;;;;;5020726;28;20283;-75
2024/01/16 07:19:59;;;;;;;6.07;0.70;;;;;;;;;;5025119;28;20740;-75
2024/01/16 07:22:27;;;;;;;0.20;0.20;;;;;;;;;;5021009;28;20220;-75
2024/01/16 07:24:53;;;;;;;0.30;0.30;;;;;;;;;;5026911;28;20263;-75
2024/01/16 07:27:20;;;;;;;0.50;0.50;;;;;;;;;;5024216;28;20251;-75
2024/01/16 07:29:47;;;;;;;0.20;0.20;;;;;;;;;;5018116;28;20224;-74
2024/01/16 07:32:13;;;;;;;0.57;0.57;;;;;;;;;;5026858;28;20234;-75
2024/01/16 07:34:40;;;;;;;0.37;0.37;;;;;;;;;;5028887;28;20251;-75
2024/01/16 07:37:06;;;;;;;0.67;0.67;;;;;;;;;;5029451;28;20289;-75
2024/01/16 07:39:32;;;;;;;0.20;0.20;;;;;;;;;;5028692;28;20235;-73
2024/01/16 07:41:59;;;;;;;0.97;0.97;;;;;;;;;;5029035;28;20600;-74
2024/01/16 07:44:26;;;;;;;0.60;0.60;;;;;;;;;;5029353;28;20228;-74
2024/01/16 07:46:52;;;;;;;0.87;0.87;;;;;;;;;;5030703;28;20240;-74
2024/01/16 07:49:19;;;;;;;0.30;0.30;;;;;;;;;;5027051;28;20235;-74
2024/01/16 07:51:46;;;;;;;0.30;0.30;;;;;;;;;;5023493;28;20255;-75
2024/01/16 07:54:13;;;;;;;0.37;0.37;;;;;;;;;;5023732;28;20228;-74
2024/01/16 07:56:41;;;;;;;0.40;0.40;;;;;;;;;;5023602;28;20237;-74
2024/01/16 07:59:08;;;;;;;0.30;0.30;;;;;;;;;;5046293;28;20231;-78
2024/01/16 08:01:34;;;;;;;0.60;0.60;;;;;;;;;;5030892;28;20267;-78
2024/01/16 08:04:08;;;;;;;0.60;0.60;;;;;;;;;;5036884;28;20228;-79
2024/01/16 08:06:35;;;;;;;0.53;0.53;;;;;;;;;;5049738;28;20220;-80
2024/01/16 08:09:01;;;;;;;0.30;0.30;;;;;;;;;;5047306;28;20259;-78
2024/01/16 08:11:29;;;;;;;0.60;0.60;;;;;;;;;;5030391;28;20223;-78
2024/01/16 08:13:55;;;;;;;0.37;0.37;;;;;;;;;;5034964;28;20219;-78
2024/01/16 08:16:22;;;;;;;0.30;0.30;;;;;;;;;;5033832;28;20225;-81
2024/01/16 08:18:48;;;;;;;0.30;0.30;;;;;;;;;;5026643;28;20242;-75
2024/01/16 08:21:15;;;;;;;0.30;0.30;;;;;;;;;;5022064;28;20731;-78
2024/01/16 08:23:41;;;;;;;0.40;0.40;;;;;;;;;;5039224;28;20228;-78
2024/01/16 08:26:08;;;;;;;0.20;0.20;;;;;;;;;;5025382;28;20248;-78
2024/01/16 08:28:35;;;;;;;0.30;0.30;;;;;;;;;;5032524;28;20229;-79
2024/01/16 08:31:02;;;;;;;0.30;0.30;;;;;;;;;;5021927;28;20229;-75
2024/01/16 08:33:28;;;;;;;0.50;0.50;;;;;;;;;;5036663;28;20255;-79
2024/01/16 08:36:08;;;;;;;1.73;1.63;;;;;;;;;;5022501;28;20235;-79
2024/01/16 08:38:35;;;;;;;0.77;0.77;;;;;;;;;;5019743;28;20574;-78
2024/01/16 08:41:03;;;;;;;0.20;0.20;;;;;;;;;;5021984;28;20320;-78
2024/01/16 08:43:29;;;;;;;0.30;0.30;;;;;;;;;;5015018;28;20231;-78
2024/01/16 08:45:56;;;;;;;0.30;0.30;;;;;;;;;;5025622;28;20230;-78
2024/01/16 08:48:22;;;;;;;0.23;0.23;;;;;;;;;;5022362;28;20633;-77
2024/01/16 08:50:49;;;;;;;0.30;0.30;;;;;;;;;;5024346;28;20638;-77
2024/01/16 08:53:16;;;;;;;0.30;0.30;;;;;;;;;;5024547;28;20227;-78
2024/01/16 08:55:43;;;;;;;0.20;0.20;;;;;;;;;;5023661;28;20243;-77
2024/01/16 08:58:09;;;;;;;1.40;1.33;;;;;;;;;;5020259;28;20228;-77
2024/01/16 09:00:36;;;;;;;0.43;0.43;;;;;;;;;;5015687;28;20229;-77
2024/01/16 09:03:02;;;;;;;0.30;0.30;;;;;;;;;;5023363;28;20228;-78
2024/01/16 09:05:30;;;;;;;0.30;0.30;;;;;;;;;;5034879;28;20224;-78
2024/01/16 09:07:57;;;;;;;0.30;0.30;;;;;;;;;;5033158;28;20255;-77
2024/01/16 09:10:24;;;;;;;0.80;0.80;;;;;;;;;;5040978;28;20220;-78
2024/01/16 09:12:50;;;;;;;0.73;0.73;;;;;;;;;;5023299;28;20625;-78
2024/01/16 09:15:16;;;;;;;0.30;0.30;;;;;;;;;;5033912;28;22166;-78
2024/01/16 09:17:43;;;;;;;0.30;0.30;;;;;;;;;;5017991;28;20228;-76
2024/01/16 09:20:10;;;;;;;0.40;0.40;;;;;;;;;;5022475;28;20283;-77
2024/01/16 09:22:38;;;;;;;0.57;0.50;;;;;;;;;;5021328;28;20786;-77
2024/01/16 09:25:05;;;;;;;0.30;0.30;;;;;;;;;;5021238;28;20228;-77
2024/01/16 09:27:32;;;;;;;4.80;1.23;;;;;;;;;;5018709;28;20232;-78
2024/01/16 09:29:58;;;;;;;0.30;0.30;;;;;;;;;;5018675;28;20228;-78
2024/01/16 09:32:25;;;;;;;0.43;0.43;;;;;;;;;;5021489;28;20259;-78
2024/01/16 09:34:51;;;;;;;0.30;0.30;;;;;;;;;;5017929;28;20810;-77
2024/01/16 09:37:18;;;;;;;25.97;1.80;;;;;;;;;;5026254;28;20263;-78
2024/01/16 09:39:44;;;;;;;0.67;0.67;;;;;;;;;;5019412;28;20232;-78
2024/01/16 09:42:11;;;;;;;0.87;0.87;;;;;;;;;;5015562;28;20224;-79
2024/01/16 09:44:37;;;;;;;0.30;0.30;;;;;;;;;;5020701;28;20223;-77
2024/01/16 09:47:07;;;;;;;0.30;0.30;;;;;;;;;;5023637;28;20314;-77
2024/01/16 09:49:34;;;;;;;0.60;0.60;;;;;;;;;;5030865;28;20224;-79
2024/01/16 09:52:01;;;;;;;0.70;0.70;;;;;;;;;;5017389;28;20263;-77
2024/01/16 09:54:28;;;;;;;6.17;1.23;;;;;;;;;;5016121;28;20217;-76
2024/01/16 09:56:58;;;;;;;0.33;0.33;;;;;;;;;;5014722;28;20232;-79
2024/01/16 09:59:27;;;;;;;0.50;0.50;;;;;;;;;;5023705;28;20247;-78
2024/01/16 10:01:55;;;;;;;0.30;0.30;;;;;;;;;;5017037;28;20235;-78
2024/01/16 10:04:22;;;;;;;1.70;1.00;;;;;;;;;;5016857;28;20314;-80
2024/01/16 10:06:50;;;;;;;0.30;0.30;;;;;;;;;;5022053;28;21059;-77
2024/01/16 10:09:16;;;;;;;0.30;0.30;;;;;;;;;;5037082;28;20273;-77
2024/01/16 10:11:44;;;;;;;0.67;0.67;;;;;;;;;;5019431;28;20224;-76
2024/01/16 10:14:11;;;;;;;0.40;0.40;;;;;;;;;;5024505;28;20239;-74
2024/01/16 10:17:12;;;;;;;0.73;0.73;;;;;;;;;;5027361;28;20235;-76
2024/01/16 10:19:49;;;;;;;0.67;0.67;;;;;;;;;;5036887;28;20235;-78
2024/01/16 10:22:24;;;;;;;0.53;0.53;;;;;;;;;;5027321;28;20223;-77
2024/01/16 10:25:08;;;;;;;0.50;0.50;;;;;;;;;;5019828;28;20615;-77
2024/01/16 10:27:35;;;;;;;3.20;2.03;;;;;;;;;;5025669;28;20783;-75
2024/01/16 10:30:03;;;;;;;0.67;0.60;;;;;;;;;;5022128;28;20228;-74
2024/01/16 10:32:37;;;;;;;0.93;0.80;;;;;;;;;;5024500;28;20220;-74
2024/01/16 10:35:08;;;;;;;1.97;1.80;;;;;;;;;;5025278;28;20316;-74
2024/01/16 10:37:52;;;;;;;1.37;1.27;;;;;;;;;;5036308;28;20227;-74
2024/01/16 10:40:20;;;;;;;0.30;0.30;;;;;;;;;;5041527;28;20699;-74
2024/01/16 10:43:03;;;;;;;1.17;0.60;;;;;;;;;;5023219;28;20708;-75
2024/01/16 10:45:30;;;;;;;0.23;0.23;;;;;;;;;;5027622;28;20227;-74
2024/01/16 10:48:02;;;;;;;0.30;0.30;;;;;;;;;;5023334;28;20716;-74
2024/01/16 10:50:30;;;;;;;0.30;0.30;;;;;;;;;;5025625;28;20232;-74
2024/01/16 10:53:01;;;;;;;0.30;0.30;;;;;;;;;;5048826;28;20226;-75
2024/01/16 10:55:29;;;;;;;0.30;0.30;;;;;;;;;;5045857;28;20727;-72
2024/01/16 10:57:56;;;;;;;0.73;0.63;;;;;;;;;;5027562;28;20239;-73
2024/01/16 11:00:24;;;;;;;0.50;0.50;;;;;;;;;;5027470;28;20228;-72
2024/01/16 11:03:04;;;;;;;0.80;0.80;;;;;;;;;;5040335;28;20660;-73
2024/01/16 11:05:35;;;;;;;1.57;1.47;;;;;;;;;;5018132;28;20235;-73
2024/01/16 11:08:03;;;;;;;4.30;0.83;;;;;;;;;;5026788;28;20282;-73
2024/01/16 11:10:31;;;;;;;0.50;0.50;;;;;;;;;;5029036;28;20342;-73
2024/01/16 11:13:00;;;;;;;0.50;0.50;;;;;;;;;;5044632;28;20775;-72
2024/01/16 11:15:31;;;;;;;0.43;0.43;;;;;;;;;;5039213;28;20240;-78
2024/01/16 11:17:59;;;;;;;0.50;0.50;;;;;;;;;;5025153;28;20228;-76
2024/01/16 11:20:27;;;;;;;0.67;0.67;;;;;;;;;;5030473;28;20232;-75
2024/01/16 11:23:14;;;;;;;0.37;0.37;;;;;;;;;;5038990;28;20283;-73
2024/01/16 11:25:40;;;;;;;0.50;0.50;;;;;;;;;;5027664;28;20228;-73
2024/01/16 11:28:11;;;;;;;0.30;0.30;;;;;;;;;;5025455;28;20242;-74
2024/01/16 11:30:38;;;;;;;0.40;0.40;;;;;;;;;;5025462;28;20234;-74
2024/01/16 11:33:05;;;;;;;0.40;0.40;;;;;;;;;;5045480;28;20227;-75
2024/01/16 11:35:34;;;;;;;0.60;0.60;;;;;;;;;;5045865;28;20236;-74
2024/01/16 11:38:06;;;;;;;0.30;0.30;;;;;;;;;;5031309;28;20736;-74
2024/01/16 11:40:32;;;;;;;0.30;0.30;;;;;;;;;;5026994;28;20235;-75
2024/01/16 11:43:35;;;;;;;0.40;0.40;;;;;;;;;;5027316;28;20254;-74
2024/01/16 11:46:08;;;;;;;1.17;0.87;;;;;;;;;;5025833;28;20239;-74
2024/01/16 11:48:38;;;;;;;1.23;1.13;;;;;;;;;;5027652;28;20231;-75
2024/01/16 11:51:24;;;;;;;0.30;0.30;;;;;;;;;;5026177;28;20650;-74
2024/01/16 11:53:51;;;;;;;0.40;0.40;;;;;;;;;;5026398;28;20791;-73
2024/01/16 11:56:48;;;;;;;0.30;0.30;;;;;;;;;;5024505;28;20225;-73
2024/01/16 11:59:32;;;;;;;0.50;0.50;;;;;;;;;;5022733;28;20228;-74
2024/01/16 12:02:02;;;;;;;0.50;0.50;;;;;;;;;;5023110;28;20236;-73
2024/01/16 12:04:31;;;;;;;0.73;0.73;;;;;;;;;;5030468;28;20278;-73
2024/01/16 12:06:58;;;;;;;0.60;0.60;;;;;;;;;;5026402;28;20255;-73
2024/01/16 12:09:27;;;;;;;0.40;0.40;;;;;;;;;;5038983;28;20232;-77
2024/01/16 12:12:00;;;;;;;0.40;0.40;;;;;;;;;;5020109;28;20232;-76
2024/01/16 12:14:28;;;;;;;0.50;0.50;;;;;;;;;;5023608;28;20235;-77
2024/01/16 12:17:10;;;;;;;0.30;0.30;;;;;;;;;;5028068;28;20324;-76
2024/01/16 12:19:40;;;;;;;0.30;0.30;;;;;;;;;;5027440;28;20219;-77
2024/01/16 12:22:13;;;;;;;0.40;0.40;;;;;;;;;;5028597;28;20228;-77
2024/01/16 12:24:40;;;;;;;0.30;0.30;;;;;;;;;;5036199;28;20232;-84
2024/01/16 12:27:08;;;;;;;0.33;0.33;;;;;;;;;;5021056;28;20239;-76
2024/01/16 12:29:35;;;;;;;0.20;0.20;;;;;;;;;;5036987;28;20319;-76
2024/01/16 12:32:07;;;;;;;0.43;0.43;;;;;;;;;;5023468;28;20239;-76
2024/01/16 12:34:35;;;;;;;0.63;0.63;;;;;;;;;;5021557;28;20285;-76
2024/01/16 12:37:06;;;;;;;0.30;0.30;;;;;;;;;;5040623;28;20228;-76
2024/01/16 12:39:35;;;;;;;0.30;0.30;;;;;;;;;;5026073;28;20235;-75
2024/01/16 12:42:02;;;;;;;0.60;0.60;;;;;;;;;;5028205;28;20220;-76
2024/01/16 12:44:29;;;;;;;0.63;0.53;;;;;;;;;;5026631;28;20224;-77
2024/01/16 12:46:56;;;;;;;0.20;0.20;;;;;;;;;;5027093;28;20237;-76
2024/01/16 12:49:23;;;;;;;0.30;0.30;;;;;;;;;;5017731;28;20696;-77
2024/01/16 12:51:50;;;;;;;0.30;0.30;;;;;;;;;;5017858;28;20227;-77
2024/01/16 12:54:18;;;;;;;0.20;0.20;;;;;;;;;;5021003;28;20298;-78
2024/01/16 12:56:47;;;;;;;0.30;0.30;;;;;;;;;;5021264;28;20377;-77
2024/01/16 12:59:14;;;;;;;0.20;0.20;;;;;;;;;;5017054;28;20231;-78
2024/01/16 13:01:45;;;;;;;0.30;0.30;;;;;;;;;;5022744;28;20228;-77
2024/01/16 13:04:15;;;;;;;0.87;0.87;;;;;;;;;;5036265;28;20275;-82
2024/01/16 13:06:46;;;;;;;0.30;0.30;;;;;;;;;;5025046;28;20227;-77
2024/01/16 13:09:16;;;;;;;0.30;0.30;;;;;;;;;;5021687;28;20483;-76
2024/01/16 13:11:54;;;;;;;0.30;0.30;;;;;;;;;;5017043;28;20251;-82
2024/01/16 13:14:22;;;;;;;0.30;0.30;;;;;;;;;;5018977;28;20237;-78
2024/01/16 13:16:50;;;;;;;0.97;0.97;;;;;;;;;;5022919;28;20224;-79
2024/01/16 13:19:19;;;;;;;0.27;0.27;;;;;;;;;;5020891;28;20240;-77
2024/01/16 13:21:47;;;;;;;0.30;0.30;;;;;;;;;;5019485;28;20370;-76
2024/01/16 13:24:14;;;;;;;0.30;0.30;;;;;;;;;;5019152;28;20224;-76
2024/01/16 13:26:41;;;;;;;0.30;0.30;;;;;;;;;;5024357;28;20238;-76
2024/01/16 13:29:09;;;;;;;0.30;0.30;;;;;;;;;;5026050;28;20273;-77
2024/01/16 13:31:35;;;;;;;0.30;0.30;;;;;;;;;;5020506;28;20228;-75
2024/01/16 13:34:02;;;;;;;0.40;0.40;;;;;;;;;;5021699;28;20235;-75
2024/01/16 13:36:28;;;;;;;0.30;0.30;;;;;;;;;;5019723;28;20283;-75
2024/01/16 13:39:15;;;;;;;0.30;0.30;;;;;;;;;;5044763;28;20209;-73
2024/01/16 13:41:42;;;;;;;0.30;0.30;;;;;;;;;;5044517;28;20216;-73
2024/01/16 13:44:08;;;;;;;0.97;0.97;;;;;;;;;;5032582;28;20231;-74
2024/01/16 13:46:35;;;;;;;0.30;0.30;;;;;;;;;;5026728;28;20255;-74
2024/01/16 13:49:22;;;;;;;0.57;0.57;;;;;;;;;;5033584;28;20228;-74
2024/01/16 13:51:51;;;;;;;0.33;0.33;;;;;;;;;;5021231;28;20220;-74
2024/01/16 13:54:17;;;;;;;0.30;0.30;;;;;;;;;;5034640;28;20225;-74
2024/01/16 13:56:46;;;;;;;0.30;0.30;;;;;;;;;;5016751;28;20223;-73
2024/01/16 13:59:31;;;;;;;0.30;0.30;;;;;;;;;;5020107;28;20311;-74
2024/01/16 14:01:58;;;;;;;0.30;0.30;;;;;;;;;;5018643;28;20713;-74
2024/01/16 14:04:25;;;;;;;0.30;0.30;;;;;;;;;;5021762;28;20452;-75
2024/01/16 14:06:51;;;;;;;0.40;0.40;;;;;;;;;;5023956;28;20911;-75
2024/01/16 14:09:38;;;;;;;1.37;1.33;;;;;;;;;;5023171;28;20234;-75
2024/01/16 14:12:08;;;;;;;0.20;0.20;;;;;;;;;;5019903;28;20236;-77
2024/01/16 14:14:34;;;;;;;0.20;0.20;;;;;;;;;;5023253;28;20217;-78
2024/01/16 14:17:02;;;;;;;0.27;0.27;;;;;;;;;;5018569;28;21206;-77
2024/01/16 14:19:30;;;;;;;0.40;0.40;;;;;;;;;;5015579;28;20307;-77
2024/01/16 14:21:57;;;;;;;0.30;0.30;;;;;;;;;;5037002;28;20311;-79
2024/01/16 14:24:23;;;;;;;0.80;0.80;;;;;;;;;;5021254;28;20601;-79
2024/01/16 14:26:50;;;;;;;0.30;0.30;;;;;;;;;;5019676;28;20216;-77
2024/01/16 14:29:16;;;;;;;0.30;0.30;;;;;;;;;;5017124;28;20228;-78
2024/01/16 14:31:43;;;;;;;0.20;0.20;;;;;;;;;;5033871;28;20738;-79
2024/01/16 14:34:15;;;;;;;0.30;0.30;;;;;;;;;;5020026;28;20290;-77
2024/01/16 14:36:42;;;;;;;0.30;0.30;;;;;;;;;;5018192;28;20225;-76
2024/01/16 14:39:13;;;;;;;0.30;0.30;;;;;;;;;;5017588;28;20233;-74
2024/01/16 14:41:40;;;;;;;0.30;0.30;;;;;;;;;;5024224;28;20247;-74
2024/01/16 14:44:31;;;;;;;0.30;0.30;;;;;;;;;;5021287;28;20219;-74
2024/01/16 14:46:58;;;;;;;0.30;0.30;;;;;;;;;;5028258;28;20224;-75
2024/01/16 14:49:31;;;;;;;0.30;0.30;;;;;;;;;;5026912;28;20232;-74